Terminal Aerodrome Forecast
Issued by NWS

Home | Current Version | Previous Version | Text Only | Print | Product List | Glossary On
Versions: 1 2 3 4 5 6 7 8 9 10 11 12 13 14 15 16 17 18 19
000
FTUS45 KRIW 231700
TAFCPR
TAF
KCPR 231726Z 2318/2418 VRB05KT P6SM SCT008 BKN030
     FM232000 08009KT P6SM VCTS SCT025CB BKN040
     FM240200 09011KT 5SM -SHRA BR SCT008 OVC020
     FM240800 05010KT 5SM -SHRA OVC008=

USA.gov is the U.S. government's official web portal to all federal, state and local government web resources and services.